Time;durP1;ratioP1;P1;durP2;ratioP2;P2;SDS_P1;SDS_P2;PMS_P1;PMS_P2;Temp;Humidity;BMP_temperature;BMP_pressure;BME280_temperature;BME280_humidity;BME280_pressure;Samples;Min_cycle;Max_cycle;Signal;HPM_P1;HPM_P2
2021/03/28 16:51:49;;;;;;;5.28;3.10;;;;;;;;;;4804615;27;8671778;-57
2021/03/28 16:54:45;;;;;;;8.32;3.13;;;;;;;;;;5089938;28;20064;-57
2021/03/28 16:57:14;;;;;;;3.88;2.90;;;;;;;;;;5068986;28;20517;-57
2021/03/28 16:59:43;;;;;;;5.13;3.20;;;;;;;;;;5089961;28;20393;-57
2021/03/28 17:02:25;;;;;;;4.30;2.70;;;;;;;;;;5090188;28;20107;-57
2021/03/28 17:04:55;;;;;;;4.40;2.75;;;;;;;;;;5089922;28;20057;-57
2021/03/28 17:07:22;;;;;;;3.83;2.45;;;;;;;;;;5089879;28;20020;-57
2021/03/28 17:09:58;;;;;;;4.15;2.60;;;;;;;;;;5089872;28;20033;-57
2021/03/28 17:12:33;;;;;;;4.70;2.60;;;;;;;;;;5090238;28;20031;-57
2021/03/28 17:15:05;;;;;;;5.53;3.25;;;;;;;;;;5089674;28;20028;-57
2021/03/28 17:17:34;;;;;;;6.30;3.10;;;;;;;;;;5089624;28;20021;-57
2021/03/28 17:20:18;;;;;;;5.57;2.75;;;;;;;;;;5089601;28;20094;-57
2021/03/28 17:22:44;;;;;;;4.35;2.50;;;;;;;;;;5089588;28;20047;-57
2021/03/28 17:25:29;;;;;;;5.93;2.90;;;;;;;;;;5089503;28;20036;-57
2021/03/28 17:28:05;;;;;;;4.20;2.88;;;;;;;;;;5089626;28;20017;-57
2021/03/28 17:30:49;;;;;;;5.07;3.08;;;;;;;;;;5089614;28;20385;-57
2021/03/28 17:33:32;;;;;;;7.10;3.35;;;;;;;;;;5089543;28;20078;-57
2021/03/28 17:36:14;;;;;;;4.03;2.80;;;;;;;;;;5089367;28;20090;-57
2021/03/28 17:38:53;;;;;;;6.22;3.00;;;;;;;;;;5089244;28;20042;-57
2021/03/28 17:41:38;;;;;;;8.55;2.58;;;;;;;;;;5089308;28;20111;-57
2021/03/28 17:44:05;;;;;;;4.93;3.05;;;;;;;;;;5089153;28;20024;-57
2021/03/28 17:46:52;;;;;;;6.15;2.78;;;;;;;;;;5089153;28;20031;-57
2021/03/28 17:49:40;;;;;;;4.30;2.80;;;;;;;;;;5084982;28;20356;-59
2021/03/28 17:52:19;;;;;;;6.03;2.97;;;;;;;;;;5057217;28;20383;-57
2021/03/28 17:54:55;;;;;;;6.47;2.90;;;;;;;;;;5055450;28;20036;-58
2021/03/28 17:57:29;;;;;;;8.23;2.92;;;;;;;;;;5055436;28;20047;-57
2021/03/28 17:59:57;;;;;;;6.95;2.83;;;;;;;;;;5055428;28;20483;-57
2021/03/28 18:02:26;;;;;;;8.68;2.80;;;;;;;;;;5055394;28;20279;-57
2021/03/28 18:04:56;;;;;;;6.50;3.13;;;;;;;;;;5055384;28;20048;-57
2021/03/28 18:07:24;;;;;;;5.25;3.47;;;;;;;;;;5055190;28;20017;-57
2021/03/28 18:09:53;;;;;;;6.35;2.80;;;;;;;;;;5055387;28;20025;-57
2021/03/28 18:12:31;;;;;;;7.97;3.20;;;;;;;;;;5055212;28;20062;-58
2021/03/28 18:15:03;;;;;;;8.73;2.75;;;;;;;;;;5055201;28;20021;-58
2021/03/28 18:17:29;;;;;;;7.88;3.20;;;;;;;;;;5055058;28;20087;-58
2021/03/28 18:20:33;;;;;;;7.28;2.80;;;;;;;;;;5054993;28;20037;-58
2021/03/28 18:23:03;;;;;;;8.52;2.67;;;;;;;;;;4973951;28;20039;-58
2021/03/28 18:25:33;;;;;;;4.47;2.88;;;;;;;;;;5042195;28;20037;-58
2021/03/28 18:28:00;;;;;;;5.88;2.95;;;;;;;;;;5054929;28;20021;-58
2021/03/28 18:30:51;;;;;;;4.72;2.60;;;;;;;;;;5054874;28;20029;-58
2021/03/28 18:33:26;;;;;;;5.05;3.38;;;;;;;;;;5055063;28;20478;-58
2021/03/28 18:35:54;;;;;;;6.10;2.80;;;;;;;;;;5054695;28;20041;-58
2021/03/28 18:38:35;;;;;;;7.13;3.20;;;;;;;;;;5054729;28;20074;-58
2021/03/28 18:41:08;;;;;;;4.63;2.95;;;;;;;;;;5054574;28;20154;-57
2021/03/28 18:43:38;;;;;;;7.47;3.42;;;;;;;;;;5054627;28;20096;-58
2021/03/28 18:46:08;;;;;;;6.07;3.10;;;;;;;;;;5054537;28;20033;-57
2021/03/28 18:48:39;;;;;;;4.90;2.88;;;;;;;;;;5054501;28;20029;-58
2021/03/28 18:51:19;;;;;;;5.57;3.03;;;;;;;;;;5053591;28;20049;-58
2021/03/28 18:53:52;;;;;;;9.20;3.05;;;;;;;;;;5035234;28;20452;-58
2021/03/28 18:56:19;;;;;;;5.95;2.88;;;;;;;;;;5034542;28;20025;-58
2021/03/28 18:58:52;;;;;;;4.68;2.83;;;;;;;;;;5034343;28;20029;-58
2021/03/28 19:01:24;;;;;;;5.50;3.30;;;;;;;;;;5034342;28;20109;-58
2021/03/28 19:04:09;;;;;;;7.72;3.13;;;;;;;;;;5033245;28;20066;-58
2021/03/28 19:06:46;;;;;;;6.53;3.13;;;;;;;;;;5034232;28;20491;-58
2021/03/28 19:09:17;;;;;;;7.78;3.22;;;;;;;;;;5034283;28;20029;-58
2021/03/28 19:11:48;;;;;;;6.00;3.40;;;;;;;;;;5034080;28;20026;-58
2021/03/28 19:14:24;;;;;;;7.40;3.20;;;;;;;;;;5034142;28;20026;-58
2021/03/28 19:16:51;;;;;;;5.32;3.10;;;;;;;;;;5034029;28;20387;-58
2021/03/28 19:19:23;;;;;;;7.82;3.38;;;;;;;;;;5033877;28;20030;-58
2021/03/28 19:21:51;;;;;;;4.55;3.08;;;;;;;;;;5034235;28;20033;-58
2021/03/28 19:24:24;;;;;;;12.93;3.42;;;;;;;;;;5033840;28;20424;-58
2021/03/28 19:26:52;;;;;;;6.40;3.47;;;;;;;;;;5033898;28;20426;-58
2021/03/28 19:29:23;;;;;;;7.43;4.07;;;;;;;;;;5033654;28;20032;-58
2021/03/28 19:31:52;;;;;;;8.38;4.20;;;;;;;;;;5033693;28;20029;-58
2021/03/28 19:34:21;;;;;;;10.18;3.72;;;;;;;;;;5033722;28;20426;-58
2021/03/28 19:37:10;;;;;;;9.07;3.33;;;;;;;;;;5033785;28;20041;-58
2021/03/28 19:39:37;;;;;;;7.88;3.60;;;;;;;;;;5025824;28;20037;-58
2021/03/28 19:42:06;;;;;;;5.18;3.28;;;;;;;;;;5033668;28;20025;-57
2021/03/28 19:44:45;;;;;;;8.60;3.70;;;;;;;;;;5033251;28;20557;-57
2021/03/28 19:47:12;;;;;;;5.60;3.67;;;;;;;;;;5033568;28;20113;-57
2021/03/28 19:49:40;;;;;;;8.15;3.80;;;;;;;;;;5033411;28;20025;-57
2021/03/28 19:52:10;;;;;;;7.70;3.58;;;;;;;;;;5034971;28;20492;-57
2021/03/28 19:54:42;;;;;;;6.10;4.07;;;;;;;;;;5013505;28;20077;-57
2021/03/28 19:57:12;;;;;;;9.65;3.70;;;;;;;;;;5013416;28;20026;-57
2021/03/28 19:59:40;;;;;;;6.82;4.20;;;;;;;;;;5013591;28;20033;-57
2021/03/28 20:02:10;;;;;;;8.85;3.67;;;;;;;;;;5013415;28;20469;-57
2021/03/28 20:04:55;;;;;;;5.45;3.20;;;;;;;;;;5013535;28;20022;-57
2021/03/28 20:07:21;;;;;;;6.18;3.28;;;;;;;;;;5013428;28;20032;-57
2021/03/28 20:09:48;;;;;;;5.53;3.40;;;;;;;;;;5013337;28;20358;-57
2021/03/28 20:12:15;;;;;;;7.25;3.10;;;;;;;;;;5013185;28;20385;-57
2021/03/28 20:14:42;;;;;;;7.03;2.95;;;;;;;;;;5013132;28;20022;-58
2021/03/28 20:17:08;;;;;;;5.47;2.85;;;;;;;;;;5013204;28;20030;-57
2021/03/28 20:19:35;;;;;;;7.57;3.33;;;;;;;;;;5012974;28;20519;-57
2021/03/28 20:22:09;;;;;;;5.40;2.90;;;;;;;;;;5013248;28;20022;-57
2021/03/28 20:24:47;;;;;;;7.57;3.55;;;;;;;;;;5013033;28;20485;-57
2021/03/28 20:27:16;;;;;;;5.68;2.78;;;;;;;;;;5013099;28;20527;-57
2021/03/28 20:29:51;;;;;;;5.97;3.20;;;;;;;;;;4995621;28;20484;-57
2021/03/28 20:32:20;;;;;;;5.50;3.08;;;;;;;;;;5013065;28;20378;-57
2021/03/28 20:34:49;;;;;;;6.80;3.53;;;;;;;;;;5012814;28;20057;-57
2021/03/28 20:37:20;;;;;;;4.22;2.95;;;;;;;;;;5013197;28;20030;-57
2021/03/28 20:39:48;;;;;;;7.85;3.40;;;;;;;;;;5012993;28;20034;-57
2021/03/28 20:42:16;;;;;;;7.18;3.10;;;;;;;;;;5013141;28;20018;-58
2021/03/28 20:44:51;;;;;;;6.88;3.38;;;;;;;;;;5012999;28;20030;-57
2021/03/28 20:47:27;;;;;;;5.97;3.13;;;;;;;;;;5013027;28;20037;-57
2021/03/28 20:49:55;;;;;;;5.88;3.55;;;;;;;;;;5012971;28;20091;-57
2021/03/28 20:52:29;;;;;;;4.35;3.10;;;;;;;;;;5015738;28;20021;-58
2021/03/28 20:54:56;;;;;;;7.15;2.97;;;;;;;;;;5032507;28;20459;-58
2021/03/28 20:57:29;;;;;;;6.38;3.45;;;;;;;;;;5032559;28;20423;-58
2021/03/28 21:29:51;;;;;;;5.25;2.88;;;;;;;;;;4804918;27;8655090;-55
2021/03/28 21:32:18;;;;;;;7.28;2.20;;;;;;;;;;5110753;28;20085;-55
2021/03/28 21:34:51;;;;;;;4.28;2.20;;;;;;;;;;5110568;28;20070;-56
2021/03/28 21:37:19;;;;;;;6.25;2.80;;;;;;;;;;5110339;28;20046;-56
2021/03/28 21:39:47;;;;;;;4.38;2.55;;;;;;;;;;5110445;28;20020;-56
2021/03/28 21:42:15;;;;;;;3.58;2.25;;;;;;;;;;5110334;28;20434;-56
2021/03/28 21:44:44;;;;;;;10.25;3.05;;;;;;;;;;5110362;28;20539;-55
2021/03/28 21:47:26;;;;;;;7.57;2.72;;;;;;;;;;5110267;28;20111;-56
2021/03/28 21:50:04;;;;;;;4.53;2.70;;;;;;;;;;5110180;28;20418;-56
2021/03/28 21:52:37;;;;;;;8.05;2.50;;;;;;;;;;5110458;28;20024;-55
2021/03/28 21:55:04;;;;;;;4.95;2.70;;;;;;;;;;5110216;28;20024;-55
2021/03/28 21:57:31;;;;;;;6.78;2.40;;;;;;;;;;5110019;28;20024;-56
2021/03/28 22:00:21;;;;;;;6.35;2.63;;;;;;;;;;5110004;28;20486;-56
2021/03/28 22:02:48;;;;;;;3.65;2.40;;;;;;;;;;5097125;28;20060;-56
2021/03/28 22:05:20;;;;;;;6.85;2.78;;;;;;;;;;5109945;28;20035;-55
2021/03/28 22:07:55;;;;;;;7.55;2.88;;;;;;;;;;5091667;28;20055;-56
2021/03/28 22:10:22;;;;;;;10.00;2.83;;;;;;;;;;5109872;28;20135;-55
2021/03/28 22:12:49;;;;;;;3.67;2.78;;;;;;;;;;5109737;28;20073;-56
2021/03/28 22:15:19;;;;;;;6.70;2.75;;;;;;;;;;5109856;28;20047;-56
2021/03/28 22:17:46;;;;;;;4.57;2.60;;;;;;;;;;5109586;28;20457;-56
2021/03/28 22:20:14;;;;;;;5.80;2.78;;;;;;;;;;5109670;28;20028;-55
2021/03/28 22:22:41;;;;;;;5.15;2.58;;;;;;;;;;5109639;28;20406;-56
2021/03/28 22:25:21;;;;;;;5.93;2.67;;;;;;;;;;5109608;28;20020;-56
2021/03/28 22:27:49;;;;;;;4.15;2.35;;;;;;;;;;5115714;27;20050;-56
2021/03/28 22:30:16;;;;;;;5.22;2.97;;;;;;;;;;5117609;28;20023;-56
2021/03/28 22:32:44;;;;;;;10.63;3.63;;;;;;;;;;5116252;28;20115;-56
2021/03/28 22:35:13;;;;;;;8.05;3.33;;;;;;;;;;5116311;28;20027;-56
2021/03/28 22:37:40;;;;;;;5.72;3.55;;;;;;;;;;5116479;28;20040;-56
2021/03/28 22:40:08;;;;;;;6.63;3.15;;;;;;;;;;5116143;28;20027;-55
2021/03/28 22:42:35;;;;;;;9.25;3.85;;;;;;;;;;5115992;28;20039;-56
2021/03/28 22:45:09;;;;;;;9.00;3.70;;;;;;;;;;5116037;28;20445;-55
2021/03/28 22:47:39;;;;;;;5.22;2.92;;;;;;;;;;5115905;28;20027;-56
2021/03/28 22:50:06;;;;;;;6.13;3.25;;;;;;;;;;5115758;28;20043;-55
2021/03/28 22:52:34;;;;;;;10.05;3.95;;;;;;;;;;5115968;28;20078;-56
2021/03/28 22:55:00;;;;;;;5.68;3.90;;;;;;;;;;5115676;28;20080;-56
2021/03/28 22:57:28;;;;;;;11.30;4.30;;;;;;;;;;5115626;28;20020;-56
2021/03/28 22:59:55;;;;;;;5.25;2.83;;;;;;;;;;5115739;28;20065;-56
2021/03/28 23:02:26;;;;;;;8.77;2.80;;;;;;;;;;5115737;28;20028;-56
2021/03/28 23:05:00;;;;;;;6.50;3.65;;;;;;;;;;5115536;28;20019;-56
2021/03/28 23:07:26;;;;;;;45.33;4.45;;;;;;;;;;5115537;28;20370;-56
2021/03/28 23:09:53;;;;;;;8.82;3.35;;;;;;;;;;5115414;28;20024;-56
2021/03/28 23:12:20;;;;;;;14.95;3.83;;;;;;;;;;5115638;28;20023;-56
